createdAt,value
2022-11-02T00:01:04.675Z,101462.63
2022-11-02T00:03:31.060Z,101463.16
2022-11-02T00:05:57.433Z,101467.06
2022-11-02T00:08:23.821Z,101467.00
2022-11-02T00:10:50.202Z,101468.34
2022-11-02T00:13:19.390Z,101465.81
2022-11-02T00:15:47.117Z,101463.91
2022-11-02T00:18:14.780Z,101473.41
2022-11-02T00:20:43.160Z,101472.66
2022-11-02T00:23:12.216Z,101468.13
2022-11-02T00:25:42.404Z,101461.59
2022-11-02T00:28:08.854Z,101474.03
2022-11-02T00:30:36.981Z,101469.06
2022-11-02T00:33:03.755Z,101471.81
2022-11-02T00:35:30.629Z,101467.84
2022-11-02T00:37:57.015Z,101470.13
2022-11-02T00:40:23.758Z,101473.44
2022-11-02T00:42:50.199Z,101474.47
2022-11-02T00:45:16.853Z,101477.22
2022-11-02T00:47:43.264Z,101481.44
2022-11-02T00:50:10.252Z,101482.19
2022-11-02T00:52:40.397Z,101482.03
2022-11-02T00:55:08.994Z,101484.81
2022-11-02T00:57:36.014Z,101473.72
2022-11-02T01:00:02.456Z,101481.75
2022-11-02T01:02:29.094Z,101476.75
2022-11-02T01:04:55.572Z,101471.88
2022-11-02T01:07:21.947Z,101474.63
2022-11-02T01:09:48.336Z,101471.22
2022-11-02T01:12:14.718Z,101469.50
2022-11-02T01:14:41.997Z,101470.13
2022-11-02T01:17:08.394Z,101480.31
2022-11-02T01:19:34.790Z,101477.97
2022-11-02T01:22:01.199Z,101468.22
2022-11-02T01:24:27.593Z,101474.16
2022-11-02T01:26:54.061Z,101475.84
2022-11-02T01:29:20.516Z,101472.47
2022-11-02T01:31:46.908Z,101458.03
2022-11-02T01:34:13.304Z,101460.03
2022-11-02T01:36:39.879Z,101456.94
2022-11-02T01:39:06.488Z,101460.03
2022-11-02T01:41:33.415Z,101459.25
2022-11-02T01:44:02.772Z,101453.09
2022-11-02T01:46:41.104Z,101449.75
2022-11-02T01:49:10.191Z,101448.56
2022-11-02T01:51:42.813Z,101450.00
2022-11-02T01:54:31.214Z,101457.31
2022-11-02T01:57:03.834Z,101452.56
2022-11-02T01:59:34.549Z,101455.06
2022-11-02T02:02:01.742Z,101438.88
2022-11-02T02:04:28.690Z,101443.34
2022-11-02T02:06:57.940Z,101436.84
2022-11-02T02:09:24.860Z,101437.69
2022-11-02T02:11:51.251Z,101443.56
2022-11-02T02:14:19.655Z,101436.94
2022-11-02T02:17:36.788Z,101429.91
2022-11-02T02:20:52.529Z,101437.47
2022-11-02T02:23:39.646Z,101434.94
2022-11-02T02:26:09.073Z,101431.63
2022-11-02T02:28:48.778Z,101431.63
2022-11-02T02:31:35.292Z,101440.00
2022-11-02T02:34:16.258Z,101438.00
2022-11-02T02:37:26.655Z,101436.94
2022-11-02T02:40:02.664Z,101429.13
2022-11-02T02:42:37.691Z,101428.34
2022-11-02T02:45:13.705Z,101417.69
2022-11-02T02:47:50.683Z,101431.31
2022-11-02T02:50:21.697Z,101431.09
2022-11-02T02:52:51.490Z,101434.09
2022-11-02T02:55:23.073Z,101426.28
2022-11-02T02:57:52.986Z,101428.81
2022-11-02T03:00:19.408Z,101422.41
2022-11-02T03:03:00.825Z,101424.31
2022-11-02T03:05:33.854Z,101426.81
2022-11-02T03:08:05.680Z,101427.03
2022-11-02T03:10:41.359Z,101426.88
2022-11-02T03:13:18.332Z,101418.72
2022-11-02T03:15:49.234Z,101424.31
2022-11-02T03:18:34.235Z,101431.56
2022-11-02T03:21:14.566Z,101429.66
2022-11-02T03:23:50.420Z,101427.34
2022-11-02T03:26:35.325Z,101426.19
2022-11-02T03:29:16.650Z,101434.09
2022-11-02T03:31:54.871Z,101430.59
2022-11-02T03:34:28.517Z,101435.03
2022-11-02T03:39:46.146Z,101433.41
2022-11-02T03:42:18.853Z,101431.91
2022-11-02T03:44:51.960Z,101437.13
2022-11-02T03:47:20.699Z,101427.97
2022-11-02T03:49:50.260Z,101431.81
2022-11-02T03:52:25.829Z,101427.81
2022-11-02T03:55:07.901Z,101422.81
2022-11-02T03:57:50.259Z,101422.47
2022-11-02T04:00:25.044Z,101418.59
2022-11-02T04:02:59.811Z,101420.19
2022-11-02T04:05:30.963Z,101415.50
2022-11-02T04:08:23.233Z,101416.03
2022-11-02T04:11:15.510Z,101419.13
2022-11-02T04:14:02.837Z,101416.69
2022-11-02T04:16:34.107Z,101416.09
2022-11-02T04:19:22.442Z,101418.53
2022-11-02T04:22:09.979Z,101421.97
2022-11-02T04:24:57.484Z,101421.06
2022-11-02T04:27:24.261Z,101421.09
2022-11-02T04:29:52.031Z,101424.44
2022-11-02T04:32:39.087Z,101427.03
2022-11-02T04:35:09.967Z,101425.31
2022-11-02T04:38:01.463Z,101423.41
2022-11-02T04:40:32.265Z,101423.66
2022-11-02T04:42:58.790Z,101422.00
2022-11-02T04:45:25.932Z,101428.13
2022-11-02T04:47:53.500Z,101426.06
2022-11-02T04:50:20.962Z,101431.97
2022-11-02T04:52:55.603Z,101417.53
2022-11-02T04:55:22.075Z,101420.59
2022-11-02T04:57:49.248Z,101419.97
2022-11-02T05:00:16.447Z,101421.09
2022-11-02T05:02:42.995Z,101421.69
2022-11-02T05:05:12.419Z,101420.59
2022-11-02T05:07:39.088Z,101417.53
2022-11-02T05:10:06.145Z,101415.00
2022-11-02T05:12:34.088Z,101414.44
2022-11-02T05:15:00.563Z,101420.53
2022-11-02T05:17:27.073Z,101413.31
2022-11-02T05:19:53.606Z,101419.44
2022-11-02T05:22:21.410Z,101418.00
2022-11-02T05:24:47.815Z,101408.84
2022-11-02T05:27:14.422Z,101415.50
2022-11-02T05:29:42.319Z,101413.53
2022-11-02T05:32:08.794Z,101418.84
2022-11-02T05:34:35.506Z,101421.06
2022-11-02T05:37:01.939Z,101418.28
2022-11-02T05:39:28.387Z,101417.63
2022-11-02T05:41:55.635Z,101414.91
2022-11-02T05:44:22.084Z,101415.75
2022-11-02T05:46:48.507Z,101407.09
2022-11-02T05:49:14.885Z,101415.75
2022-11-02T05:51:41.311Z,101413.53
2022-11-02T05:54:07.737Z,101417.69
2022-11-02T05:56:35.269Z,101414.09
2022-11-02T05:59:01.724Z,101414.97
2022-11-02T06:01:28.154Z,101419.19
2022-11-02T06:03:54.743Z,101418.00
2022-11-02T06:06:21.439Z,101418.00
2022-11-02T06:08:47.999Z,101417.16
2022-11-02T06:11:15.049Z,101419.69
2022-11-02T06:13:42.327Z,101416.09
2022-11-02T06:16:10.543Z,101411.63
2022-11-02T06:18:38.310Z,101418.66
2022-11-02T06:21:05.361Z,101424.78
2022-11-02T06:23:31.885Z,101425.13
2022-11-02T06:25:59.714Z,101423.13
2022-11-02T06:28:26.616Z,101423.97
2022-11-02T06:30:53.902Z,101418.31
2022-11-02T06:33:20.761Z,101434.00
2022-11-02T06:35:49.027Z,101436.56
2022-11-02T06:38:16.303Z,101434.34
2022-11-02T06:40:42.922Z,101446.13
2022-11-02T06:43:17.975Z,101440.47
2022-11-02T06:45:44.634Z,101445.16
2022-11-02T06:48:11.058Z,101453.78
2022-11-02T06:50:37.496Z,101446.91
2022-11-02T06:53:04.371Z,101452.25
2022-11-02T06:55:30.990Z,101453.09
2022-11-02T06:57:57.409Z,101450.88
2022-11-02T07:00:24.258Z,101456.78
2022-11-02T07:03:09.353Z,101449.28
2022-11-02T07:05:36.165Z,101446.56
2022-11-02T07:08:02.906Z,101449.91
2022-11-02T07:10:29.566Z,101448.81
2022-11-02T07:12:57.361Z,101446.63
2022-11-02T07:15:25.406Z,101446.91
2022-11-02T07:17:52.160Z,101447.31
2022-11-02T07:20:18.606Z,101447.59
2022-11-02T07:22:55.876Z,101446.34
2022-11-02T07:25:22.889Z,101445.50
2022-11-02T07:27:49.436Z,101440.31
2022-11-02T07:30:16.313Z,101447.03
2022-11-02T07:32:44.833Z,101451.03
2022-11-02T07:35:15.240Z,101458.06
2022-11-02T07:37:41.708Z,101458.06
2022-11-02T07:40:10.381Z,101448.38
2022-11-02T07:42:36.777Z,101452.44
2022-11-02T07:45:05.922Z,101449.59
2022-11-02T07:47:33.213Z,101454.69
2022-11-02T07:50:00.722Z,101448.25
2022-11-02T07:52:27.114Z,101461.72
2022-11-02T07:54:53.675Z,101462.03
2022-11-02T07:57:20.073Z,101464.84
2022-11-02T07:59:46.453Z,101464.31
2022-11-02T08:02:13.690Z,101461.56
2022-11-02T08:04:43.861Z,101466.91
2022-11-02T08:07:11.562Z,101463.91
2022-11-02T08:09:37.961Z,101458.56
2022-11-02T08:12:04.409Z,101460.59
2022-11-02T08:14:30.834Z,101459.19
2022-11-02T08:16:57.241Z,101469.59
2022-11-02T08:19:23.625Z,101469.09
2022-11-02T08:21:50.228Z,101466.53
2022-11-02T08:24:16.612Z,101473.31
2022-11-02T08:26:45.329Z,101474.69
2022-11-02T08:29:13.131Z,101471.91
2022-11-02T08:31:39.525Z,101471.94
2022-11-02T08:34:06.268Z,101471.94
2022-11-02T08:36:35.414Z,101475.31
2022-11-02T08:39:01.894Z,101481.19
2022-11-02T08:41:28.317Z,101471.13
2022-11-02T08:43:54.691Z,101472.78
2022-11-02T08:46:21.084Z,101471.41
2022-11-02T08:48:47.521Z,101471.69
2022-11-02T08:51:13.936Z,101468.63
2022-11-02T08:53:40.848Z,101474.53
2022-11-02T08:56:07.489Z,101474.78
2022-11-02T08:58:33.893Z,101476.22
2022-11-02T09:01:00.291Z,101478.19
2022-11-02T09:03:28.179Z,101473.16
2022-11-02T09:05:59.893Z,101489.97
2022-11-02T09:08:27.838Z,101475.94
2022-11-02T09:10:59.511Z,101472.56
2022-11-02T09:13:25.988Z,101472.84
2022-11-02T09:15:55.500Z,101474.25
2022-11-02T09:18:22.850Z,101477.63
2022-11-02T09:20:50.065Z,101477.31
2022-11-02T09:23:17.671Z,101476.19
2022-11-02T09:25:44.720Z,101479.81
2022-11-02T09:28:11.505Z,101480.66
2022-11-02T09:30:38.056Z,101487.09
2022-11-02T09:33:06.195Z,101476.44
2022-11-02T09:35:38.475Z,101488.16
2022-11-02T09:38:05.146Z,101487.06
2022-11-02T09:40:44.826Z,101483.66
2022-11-02T09:43:42.450Z,101486.75
2022-11-02T09:46:31.894Z,101498.56
2022-11-02T09:49:03.262Z,101494.88
2022-11-02T09:51:37.135Z,101492.09
2022-11-02T09:54:22.272Z,101501.00
2022-11-02T09:56:50.721Z,101496.78
2022-11-02T09:59:22.804Z,101494.53
2022-11-02T10:02:02.868Z,101492.44
2022-11-02T10:04:44.227Z,101493.25
2022-11-02T10:07:34.183Z,101488.47
2022-11-02T10:10:19.921Z,101490.16
2022-11-02T10:13:18.490Z,101481.03
2022-11-02T10:16:22.130Z,101491.97
2022-11-02T10:18:51.915Z,101491.38
2022-11-02T10:21:27.362Z,101495.03
2022-11-02T10:23:55.540Z,101485.38
2022-11-02T10:26:30.822Z,101483.47
2022-11-02T10:29:01.667Z,101492.53
2022-11-02T10:31:34.321Z,101486.75
2022-11-02T10:34:29.041Z,101487.09
2022-11-02T10:37:24.191Z,101487.41
2022-11-02T10:40:07.670Z,101486.34
2022-11-02T10:42:58.697Z,101490.28
2022-11-02T10:45:40.195Z,101494.47
2022-11-02T10:48:27.969Z,101491.16
2022-11-02T10:51:14.591Z,101497.53
2022-11-02T10:53:46.193Z,101497.75
2022-11-02T10:56:16.748Z,101506.69
2022-11-02T10:59:15.500Z,101512.13
2022-11-02T11:02:06.957Z,101520.13
2022-11-02T11:04:35.921Z,101520.88
2022-11-02T11:07:13.086Z,101522.78
2022-11-02T11:09:48.286Z,101521.66
2022-11-02T11:12:22.468Z,101526.50
2022-11-02T11:20:34.488Z,101517.69
2022-11-02T11:23:10.339Z,101529.75
2022-11-02T11:25:36.765Z,101525.63
2022-11-02T11:28:22.559Z,101530.25
2022-11-02T11:31:02.628Z,101528.06
2022-11-02T11:33:32.787Z,101535.38
2022-11-02T11:36:00.014Z,101529.84
2022-11-02T11:38:27.312Z,101531.50
2022-11-02T11:40:59.215Z,101531.38
2022-11-02T11:43:30.551Z,101534.28
2022-11-02T11:46:05.922Z,101531.06
2022-11-02T11:48:47.716Z,101531.13
2022-11-02T11:51:35.277Z,101527.88
2022-11-02T11:54:24.255Z,101523.56
2022-11-02T11:56:52.821Z,101521.28
2022-11-02T11:59:26.081Z,101517.81
2022-11-02T12:01:57.264Z,101517.25
2022-11-02T12:04:40.613Z,101515.72
2022-11-02T12:07:28.965Z,101514.88
2022-11-02T12:10:07.800Z,101515.38
2022-11-02T12:12:50.277Z,101505.00
2022-11-02T12:15:50.735Z,101514.50
2022-11-02T12:18:44.698Z,101509.03
2022-11-02T12:21:29.858Z,101503.81
2022-11-02T12:24:10.114Z,101511.28
2022-11-02T12:27:11.691Z,101510.66
2022-11-02T12:30:00.656Z,101509.47
2022-11-02T12:32:45.667Z,101510.00
2022-11-02T12:35:35.380Z,101520.47
2022-11-02T12:38:35.787Z,101520.47
2022-11-02T12:41:07.095Z,101513.75
2022-11-02T12:43:39.016Z,101516.28
2022-11-02T12:46:39.714Z,101518.50
2022-11-02T12:49:41.546Z,101515.88
2022-11-02T12:52:40.878Z,101516.97
2022-11-02T12:55:17.752Z,101529.38
2022-11-02T12:57:45.865Z,101523.88
2022-11-02T13:00:22.094Z,101527.59
2022-11-02T13:03:04.382Z,101519.91
2022-11-02T13:05:46.926Z,101521.78
2022-11-02T13:08:25.351Z,101519.34
2022-11-02T13:10:57.219Z,101524.72
2022-11-02T13:13:43.945Z,101521.34
2022-11-02T13:16:11.566Z,101529.53
2022-11-02T13:18:45.665Z,101527.72
2022-11-02T13:21:15.995Z,101533.22
2022-11-02T13:23:56.696Z,101533.22
2022-11-02T13:26:34.197Z,101532.13
2022-11-02T13:29:07.826Z,101537.41
2022-11-02T13:31:50.550Z,101542.56
2022-11-02T13:34:31.514Z,101541.97
2022-11-02T13:36:58.424Z,101539.31
2022-11-02T13:39:37.741Z,101538.00
2022-11-02T13:42:36.678Z,101539.06
2022-11-02T13:45:29.528Z,101541.78
2022-11-02T13:48:18.836Z,101538.25
2022-11-02T13:50:56.663Z,101533.69
2022-11-02T13:53:34.497Z,101528.88
2022-11-02T13:56:09.496Z,101536.91
2022-11-02T13:58:41.267Z,101534.31
2022-11-02T14:01:11.528Z,101536.34
2022-11-02T14:04:01.953Z,101539.81
2022-11-02T14:06:31.726Z,101538.28
2022-11-02T14:09:02.880Z,101543.25
2022-11-02T14:11:41.465Z,101549.84
2022-11-02T14:14:10.844Z,101548.72
2022-11-02T14:16:43.721Z,101547.59
2022-11-02T14:19:19.227Z,101545.28
2022-11-02T14:22:08.908Z,101549.22
2022-11-02T14:24:36.100Z,101557.09
2022-11-02T14:27:27.673Z,101549.50
2022-11-02T14:29:56.918Z,101555.63
2022-11-02T14:32:36.864Z,101565.47
2022-11-02T14:35:40.187Z,101567.38
2022-11-02T14:38:25.451Z,101568.75
2022-11-02T14:41:23.632Z,101589.47
2022-11-02T14:44:08.537Z,101576.75
2022-11-02T14:46:56.521Z,101588.72
2022-11-02T14:49:27.874Z,101586.34
2022-11-02T14:52:03.980Z,101592.06
2022-11-02T14:54:37.538Z,101590.81
2022-11-02T14:57:21.600Z,101587.25
2022-11-02T14:59:52.229Z,101592.63
2022-11-02T15:02:40.309Z,101595.88
2022-11-02T15:05:22.850Z,101599.31
2022-11-02T15:07:53.878Z,101600.28
2022-11-02T15:10:20.199Z,101601.09
2022-11-02T15:12:48.384Z,101602.38
2022-11-02T15:15:29.585Z,101606.13
2022-11-02T15:17:55.893Z,101613.44
2022-11-02T15:20:31.233Z,101609.66
2022-11-02T15:23:26.664Z,101618.41
2022-11-02T15:25:58.348Z,101615.72
2022-11-02T15:28:28.352Z,101624.19
2022-11-02T15:31:03.835Z,101633.22
2022-11-02T15:33:39.104Z,101628.16
2022-11-02T15:36:15.635Z,101635.81
2022-11-02T15:38:48.026Z,101633.00
2022-11-02T15:41:24.984Z,101638.94
2022-11-02T15:44:12.004Z,101642.31
2022-11-02T15:46:50.666Z,101649.38
2022-11-02T15:49:31.681Z,101642.84
2022-11-02T15:52:05.777Z,101643.78
2022-11-02T15:55:09.646Z,101647.75
2022-11-02T15:58:00.874Z,101654.22
2022-11-02T16:00:30.177Z,101651.72
2022-11-02T16:03:02.713Z,101656.22
2022-11-02T16:05:33.336Z,101649.47
2022-11-02T16:08:15.119Z,101661.84
2022-11-02T16:10:41.515Z,101666.91
2022-11-02T16:13:07.947Z,101658.78
2022-11-02T16:15:34.538Z,101658.50
2022-11-02T16:18:01.013Z,101654.59
2022-11-02T16:20:34.574Z,101658.25
2022-11-02T16:23:04.132Z,101659.09
2022-11-02T16:25:53.061Z,101661.94
2022-11-02T16:28:26.636Z,101674.00
2022-11-02T16:31:19.622Z,101672.06
2022-11-02T16:33:53.853Z,101672.63
2022-11-02T16:36:22.556Z,101677.09
2022-11-02T16:39:17.775Z,101673.19
2022-11-02T16:41:50.074Z,101670.38
2022-11-02T16:44:26.712Z,101669.78
2022-11-02T16:46:57.454Z,101683.28
2022-11-02T16:49:26.481Z,101682.69
2022-11-02T16:52:06.558Z,101687.75
2022-11-02T16:54:43.404Z,101690.25
2022-11-02T16:57:18.471Z,101685.47
2022-11-02T16:59:55.582Z,101690.25
2022-11-02T17:02:34.933Z,101691.66
2022-11-02T17:05:06.022Z,101693.63
2022-11-02T17:07:41.941Z,101699.78
2022-11-02T17:10:18.205Z,101698.94
2022-11-02T17:12:45.278Z,101698.94
2022-11-02T17:15:19.197Z,101709.88
2022-11-02T17:17:46.026Z,101699.78
2022-11-02T17:20:15.070Z,101706.78
2022-11-02T17:22:59.507Z,101710.97
2022-11-02T17:25:33.236Z,101709.59
2022-11-02T17:28:02.141Z,101709.28
2022-11-02T17:30:34.770Z,101715.50
2022-11-02T17:33:23.762Z,101717.69
2022-11-02T17:35:52.447Z,101721.66
2022-11-02T17:38:22.721Z,101728.81
2022-11-02T17:40:52.133Z,101718.31
2022-11-02T17:43:23.406Z,101726.44
2022-11-02T17:46:00.110Z,101731.97
2022-11-02T17:48:28.972Z,101730.88
2022-11-02T17:50:57.542Z,101729.72
2022-11-02T17:53:24.143Z,101734.16
2022-11-02T17:55:50.625Z,101741.41
2022-11-02T17:58:17.430Z,101739.19
2022-11-02T18:00:43.980Z,101741.41
2022-11-02T18:03:15.775Z,101740.81
2022-11-02T18:05:45.087Z,101740.50
2022-11-02T18:08:15.020Z,101742.16
2022-11-02T18:10:43.874Z,101749.41
2022-11-02T18:13:19.548Z,101745.22
2022-11-02T18:15:46.970Z,101744.72
2022-11-02T18:18:13.494Z,101744.78
2022-11-02T18:20:42.017Z,101741.00
2022-11-02T18:23:15.081Z,101742.63
2022-11-02T18:25:42.505Z,101742.88
2022-11-02T18:28:09.239Z,101741.47
2022-11-02T18:30:35.653Z,101740.03
2022-11-02T18:33:02.779Z,101742.59
2022-11-02T18:35:29.458Z,101746.78
2022-11-02T18:37:55.842Z,101736.16
2022-11-02T18:40:22.274Z,101748.41
2022-11-02T18:42:48.655Z,101739.38
2022-11-02T18:45:15.871Z,101743.25
2022-11-02T18:47:42.506Z,101744.94
2022-11-02T18:50:11.156Z,101742.31
2022-11-02T18:52:37.582Z,101750.94
2022-11-02T18:55:05.312Z,101747.78
2022-11-02T18:57:32.794Z,101746.97
2022-11-02T19:00:00.631Z,101748.19
2022-11-02T19:02:27.127Z,101744.19
2022-11-02T19:04:53.570Z,101739.09
2022-11-02T19:07:38.731Z,101738.47
2022-11-02T19:10:05.609Z,101743.03
2022-11-02T19:12:32.593Z,101744.94
2022-11-02T19:14:59.024Z,101747.06
2022-11-02T19:17:26.693Z,101746.84
2022-11-02T19:19:53.754Z,101749.03
2022-11-02T19:22:22.653Z,101743.94
2022-11-02T19:24:49.696Z,101749.03
2022-11-02T19:27:18.862Z,101760.91
2022-11-02T19:29:45.583Z,101761.44
2022-11-02T19:32:12.332Z,101753.34
2022-11-02T19:34:38.756Z,101759.00
2022-11-02T19:37:07.056Z,101759.28
2022-11-02T19:39:33.521Z,101757.94
2022-11-02T19:42:00.154Z,101764.53
2022-11-02T19:44:26.570Z,101759.44
2022-11-02T19:46:52.995Z,101752.19
2022-11-02T19:49:19.375Z,101752.34
2022-11-02T19:51:45.781Z,101753.22
2022-11-02T19:54:12.271Z,101764.66
2022-11-02T19:56:38.777Z,101763.44
2022-11-02T19:59:06.074Z,101766.94
2022-11-02T20:01:35.148Z,101771.19
2022-11-02T20:04:02.284Z,101772.97
2022-11-02T20:06:33.297Z,101763.31
2022-11-02T20:09:01.705Z,101778.63
2022-11-02T20:11:28.820Z,101770.91
2022-11-02T20:14:00.115Z,101778.44
2022-11-02T20:16:27.331Z,101774.81
2022-11-02T20:18:54.950Z,101765.00
2022-11-02T20:21:31.576Z,101780.47
2022-11-02T20:24:00.497Z,101778.94
2022-11-02T20:26:32.802Z,101781.31
2022-11-02T20:29:00.273Z,101781.38
2022-11-02T20:31:29.823Z,101773.00
2022-11-02T20:33:56.237Z,101781.38
2022-11-02T20:36:22.657Z,101777.63
2022-11-02T20:38:51.816Z,101779.59
2022-11-02T20:41:20.687Z,101782.44
2022-11-02T20:43:48.649Z,101780.50
2022-11-02T20:46:38.285Z,101781.91
2022-11-02T20:49:21.568Z,101780.66
2022-11-02T20:51:53.993Z,101781.78
2022-11-02T20:54:22.192Z,101780.22
2022-11-02T20:56:49.500Z,101781.56
2022-11-02T20:59:15.938Z,101778.75
2022-11-02T21:01:42.432Z,101782.69
2022-11-02T21:04:08.976Z,101790.59
2022-11-02T21:06:35.398Z,101784.53
2022-11-02T21:09:07.666Z,101783.78
2022-11-02T21:11:55.875Z,101791.09
2022-11-02T21:14:23.405Z,101791.31
2022-11-02T21:16:49.858Z,101786.84
2022-11-02T21:19:16.252Z,101789.75
2022-11-02T21:21:42.624Z,101788.47
2022-11-02T21:24:09.845Z,101795.03
2022-11-02T21:26:36.242Z,101796.59
2022-11-02T21:29:02.602Z,101794.75
2022-11-02T21:31:28.996Z,101791.00
2022-11-02T21:33:55.392Z,101788.22
2022-11-02T21:36:21.780Z,101788.59
2022-11-02T21:38:51.015Z,101795.41
2022-11-02T21:41:21.017Z,101791.66
2022-11-02T21:43:47.628Z,101788.97
2022-11-02T21:46:14.029Z,101785.19
2022-11-02T21:48:40.435Z,101791.38
2022-11-02T21:51:10.477Z,101784.84
2022-11-02T21:53:39.304Z,101780.94
2022-11-02T21:56:14.556Z,101783.66
2022-11-02T21:58:44.839Z,101783.75
2022-11-02T22:01:37.909Z,101785.34
2022-11-02T22:04:05.892Z,101779.28
2022-11-02T22:06:32.684Z,101782.44
2022-11-02T22:09:00.402Z,101768.00
2022-11-02T22:11:27.526Z,101771.16
2022-11-02T22:13:55.820Z,101770.66
2022-11-02T22:16:28.063Z,101770.06
2022-11-02T22:18:56.581Z,101778.03
2022-11-02T22:21:23.892Z,101769.31
2022-11-02T22:23:50.648Z,101766.53
2022-11-02T22:26:22.266Z,101767.75
2022-11-02T22:28:49.115Z,101771.63
2022-11-02T22:31:20.502Z,101766.53
2022-11-02T22:33:48.860Z,101773.09
2022-11-02T22:36:17.028Z,101765.44
2022-11-02T22:38:53.651Z,101765.22
2022-11-02T22:41:31.404Z,101767.88
2022-11-02T22:44:01.592Z,101768.00
2022-11-02T22:46:29.590Z,101759.03
2022-11-02T22:48:57.721Z,101759.16
2022-11-02T22:51:26.962Z,101761.44
2022-11-02T22:53:54.186Z,101759.63
2022-11-02T22:56:22.282Z,101750.53
2022-11-02T22:58:49.631Z,101752.97
2022-11-02T23:01:24.759Z,101751.41
2022-11-02T23:03:51.856Z,101754.53
2022-11-02T23:06:22.804Z,101752.75
2022-11-02T23:08:51.582Z,101749.22
2022-11-02T23:11:21.333Z,101746.06
2022-11-02T23:13:54.426Z,101753.09
2022-11-02T23:16:26.034Z,101753.34
2022-11-02T23:19:31.797Z,101756.59
2022-11-02T23:22:18.450Z,101758.19
2022-11-02T23:25:11.755Z,101756.75
2022-11-02T23:28:02.003Z,101752.63
2022-11-02T23:30:50.355Z,101754.91
2022-11-02T23:33:16.793Z,101763.63
2022-11-02T23:36:02.031Z,101745.47
2022-11-02T23:38:47.546Z,101755.03
2022-11-02T23:41:14.060Z,101750.91
2022-11-02T23:43:40.444Z,101746.44
2022-11-02T23:46:06.826Z,101752.22
2022-11-02T23:48:33.313Z,101737.09
2022-11-02T23:51:18.826Z,101741.22
2022-11-02T23:54:03.775Z,101731.53
2022-11-02T23:56:45.855Z,101741.94
2022-11-02T23:59:13.713Z,101736.25
